createdAt,value
2018-10-03T00:04:16.462Z,98900.00
2018-10-03T00:09:20.593Z,98922.00
2018-10-03T00:14:24.722Z,98920.00
2018-10-03T00:19:28.824Z,98816.00
2018-10-03T00:24:32.679Z,98780.00
2018-10-03T00:29:36.909Z,98739.00
2018-10-03T00:34:41.024Z,98733.00
2018-10-03T00:39:45.179Z,98668.00
2018-10-03T00:44:49.293Z,98690.00
2018-10-03T00:49:53.382Z,98644.00
2018-10-03T00:54:57.639Z,98775.00
2018-10-03T01:00:01.977Z,98916.00
2018-10-03T01:05:06.644Z,99078.00
2018-10-03T01:10:10.557Z,98952.00
2018-10-03T01:15:14.720Z,98750.00
2018-10-03T01:20:18.558Z,98539.00
2018-10-03T01:25:23.071Z,98440.00
2018-10-03T01:30:27.507Z,98278.00
2018-10-03T01:35:31.647Z,98176.00
2018-10-03T01:40:36.115Z,98048.00
2018-10-03T01:45:39.988Z,97992.00
2018-10-03T01:50:44.331Z,97998.00
2018-10-03T01:55:48.686Z,97932.00
2018-10-03T02:00:52.589Z,97984.00
2018-10-03T02:05:56.433Z,98496.00
2018-10-03T02:11:00.779Z,98736.00
2018-10-03T02:16:04.639Z,98812.00
2018-10-03T02:21:08.730Z,98913.00
2018-10-03T02:26:12.816Z,98777.00
2018-10-03T02:31:16.654Z,98818.00
2018-10-03T02:36:20.857Z,98856.00
2018-10-03T02:41:24.955Z,98819.00
2018-10-03T02:46:29.055Z,98851.00
2018-10-03T02:51:33.587Z,98877.00
2018-10-03T02:56:37.835Z,98910.00
2018-10-03T03:01:41.751Z,98907.00
2018-10-03T03:06:45.554Z,98929.00
2018-10-03T03:11:49.447Z,98988.00
2018-10-03T03:16:53.268Z,98985.00
2018-10-03T03:21:57.105Z,99016.00
2018-10-03T03:27:01.231Z,99000.00
2018-10-03T03:32:05.411Z,99017.00
2018-10-03T03:37:09.578Z,99150.00
2018-10-03T03:42:13.699Z,99071.00
2018-10-03T03:47:18.092Z,99071.00
2018-10-03T03:52:22.414Z,99079.00
2018-10-03T03:57:26.273Z,99076.00
2018-10-03T04:02:30.378Z,99073.00
2018-10-03T04:07:34.501Z,99050.00
2018-10-03T04:12:38.718Z,99018.00
2018-10-03T04:17:42.593Z,99005.00
2018-10-03T04:22:46.854Z,98986.00
2018-10-03T04:27:50.823Z,99173.00
2018-10-03T04:32:54.737Z,99182.00
2018-10-03T04:37:58.860Z,99157.00
2018-10-03T04:43:02.724Z,99179.00
2018-10-03T04:48:06.643Z,99184.00
2018-10-03T04:53:10.510Z,99181.00
2018-10-03T04:58:14.338Z,99211.00
2018-10-03T05:03:18.186Z,99177.00
2018-10-03T05:08:22.390Z,99180.00
2018-10-03T05:13:26.279Z,99169.00
2018-10-03T05:18:30.386Z,99132.00
2018-10-03T05:23:34.503Z,99131.00
2018-10-03T05:28:38.618Z,99134.00
2018-10-03T05:33:42.794Z,99113.00
2018-10-03T05:38:46.636Z,99179.00
2018-10-03T05:43:50.577Z,99134.00
2018-10-03T05:48:54.761Z,99088.00
2018-10-03T05:53:58.823Z,99098.00
2018-10-03T05:59:02.675Z,99048.00
2018-10-03T06:04:06.672Z,99030.00
2018-10-03T06:09:11.873Z,99040.00
2018-10-03T06:14:16.130Z,99019.00
2018-10-03T06:19:20.403Z,98900.00
2018-10-03T06:24:24.269Z,98830.00
2018-10-03T06:29:28.388Z,98793.00
2018-10-03T06:34:32.585Z,98771.00
2018-10-03T06:39:36.650Z,98830.00
2018-10-03T06:44:40.747Z,98929.00
2018-10-03T06:49:44.553Z,99034.00
2018-10-03T06:54:48.686Z,99120.00
2018-10-03T06:59:52.532Z,99257.00
2018-10-03T07:04:56.657Z,99347.00
2018-10-03T07:10:00.766Z,99483.00
2018-10-03T07:15:04.612Z,99583.00
2018-10-03T07:20:08.493Z,99748.00
2018-10-03T07:25:12.259Z,99967.00
2018-10-03T07:30:16.081Z,100257.00
2018-10-03T07:35:19.917Z,100472.00
2018-10-03T07:40:23.997Z,100631.00
2018-10-03T07:45:28.073Z,100884.00
2018-10-03T07:50:32.266Z,101000.00
2018-10-03T07:55:36.419Z,100920.00
2018-10-03T08:00:40.474Z,100841.00
2018-10-03T08:05:44.336Z,100746.00
2018-10-03T08:10:48.139Z,100710.00
2018-10-03T08:15:52.239Z,100702.00
2018-10-03T08:20:56.340Z,100683.00
2018-10-03T08:26:00.153Z,100702.00
2018-10-03T08:31:04.263Z,100759.00
2018-10-03T08:36:08.346Z,100872.00
2018-10-03T08:41:12.174Z,100957.00
2018-10-03T08:46:16.278Z,101007.00
2018-10-03T08:51:20.453Z,101086.00
2018-10-03T08:56:24.265Z,101147.00
2018-10-03T09:01:28.321Z,101172.00
2018-10-03T09:06:32.127Z,101182.00
2018-10-03T09:11:36.490Z,101221.00
2018-10-03T09:16:40.288Z,101396.00
2018-10-03T09:21:44.275Z,101495.00
2018-10-03T09:26:48.001Z,101508.00
2018-10-03T09:31:52.204Z,101519.00
2018-10-03T09:36:56.023Z,101577.00
2018-10-03T09:42:00.090Z,101618.00
2018-10-03T09:47:04.291Z,101696.00
2018-10-03T09:52:08.101Z,101612.00
2018-10-03T09:57:12.200Z,101761.00
2018-10-03T10:02:16.280Z,101657.00
2018-10-03T10:07:20.473Z,101752.00
2018-10-03T10:12:24.291Z,101772.00
2018-10-03T10:17:28.133Z,101807.00
2018-10-03T10:22:32.194Z,101800.00
2018-10-03T10:27:36.371Z,101799.00
2018-10-03T10:32:40.251Z,101899.00
2018-10-03T10:37:44.033Z,101962.00
2018-10-03T10:42:47.897Z,102054.00
2018-10-03T10:47:51.796Z,102097.00
2018-10-03T10:52:55.601Z,102232.00
2018-10-03T10:57:59.436Z,102311.00
2018-10-03T11:03:03.546Z,102413.00
2018-10-03T11:08:07.750Z,102468.00
2018-10-03T11:13:11.562Z,102515.00
2018-10-03T11:18:16.396Z,102532.00
2018-10-03T11:23:20.546Z,102558.00
2018-10-03T11:28:24.318Z,102574.00
2018-10-03T11:33:28.149Z,102587.00
2018-10-03T11:38:32.198Z,102604.00
2018-10-03T11:43:36.008Z,102607.00
2018-10-03T11:48:39.836Z,102617.00
2018-10-03T11:53:43.910Z,102612.00
2018-10-03T11:58:47.709Z,102617.00
2018-10-03T12:03:51.907Z,102618.00
2018-10-03T12:08:56.061Z,102611.00
2018-10-03T12:14:00.159Z,102600.00
2018-10-03T12:19:03.985Z,102597.00
2018-10-03T12:24:08.138Z,102608.00
2018-10-03T12:29:12.227Z,102607.00
2018-10-03T12:34:16.311Z,102594.00
2018-10-03T12:39:20.223Z,102584.00
2018-10-03T12:44:24.056Z,102576.00
2018-10-03T12:49:30.846Z,102563.00
2018-10-03T12:54:34.972Z,102553.00
2018-10-03T12:59:38.796Z,102554.00
2018-10-03T13:04:42.635Z,102556.00
2018-10-03T13:09:46.695Z,102547.00
2018-10-03T13:14:50.806Z,102550.00
2018-10-03T13:19:54.918Z,102546.00
2018-10-03T13:24:58.720Z,102550.00
2018-10-03T13:30:02.783Z,102540.00
2018-10-03T13:35:06.605Z,102534.00
2018-10-03T13:40:10.659Z,102536.00
2018-10-03T13:45:14.696Z,102545.00
2018-10-03T13:50:18.483Z,102528.00
2018-10-03T13:55:22.724Z,102525.00
2018-10-03T14:00:26.784Z,102523.00
2018-10-03T14:05:30.873Z,102516.00
2018-10-03T14:10:34.953Z,102526.00
2018-10-03T14:15:38.796Z,102526.00
2018-10-03T14:20:42.883Z,102525.00
2018-10-03T14:25:46.845Z,102523.00
2018-10-03T14:30:50.941Z,102528.00
2018-10-03T14:35:55.005Z,102522.00
2018-10-03T14:40:58.841Z,102518.00
2018-10-03T14:46:02.905Z,102508.00
2018-10-03T14:51:06.894Z,102519.00
2018-10-03T14:56:10.701Z,102518.00
2018-10-03T15:01:14.794Z,102519.00
2018-10-03T15:06:18.604Z,102530.00
2018-10-03T15:11:22.440Z,102531.00
2018-10-03T15:16:26.502Z,102539.00
2018-10-03T15:21:30.536Z,102539.00
2018-10-03T15:26:34.586Z,102542.00
2018-10-03T15:31:38.700Z,102546.00
2018-10-03T15:36:42.758Z,102545.00
2018-10-03T15:41:53.196Z,102545.00
2018-10-03T15:46:57.246Z,102541.00
2018-10-03T15:52:01.042Z,102543.00
2018-10-03T15:57:05.073Z,102541.00
2018-10-03T16:02:09.149Z,102541.00
2018-10-03T16:07:13.197Z,102553.00
2018-10-03T16:12:16.998Z,102558.00
2018-10-03T16:17:21.433Z,102565.00
2018-10-03T16:22:25.249Z,102566.00
2018-10-03T16:27:29.545Z,102574.00
2018-10-03T16:32:33.629Z,102580.00
2018-10-03T16:37:37.692Z,102571.00
2018-10-03T16:42:41.870Z,102583.00
2018-10-03T16:47:45.948Z,102586.00
2018-10-03T16:52:50.116Z,102592.00
2018-10-03T16:57:54.181Z,102594.00
2018-10-03T17:02:59.050Z,102602.00
2018-10-03T17:08:03.119Z,102607.00
2018-10-03T17:13:07.252Z,102607.00
2018-10-03T17:18:11.336Z,102612.00
2018-10-03T17:23:15.161Z,102614.00
2018-10-03T17:28:18.977Z,102613.00
2018-10-03T17:33:22.796Z,102590.00
2018-10-03T17:38:26.910Z,102567.00
2018-10-03T17:43:30.990Z,102157.00
2018-10-03T17:48:34.834Z,102147.00
2018-10-03T17:53:38.671Z,102174.00
2018-10-03T17:58:42.534Z,102221.00
2018-10-03T18:03:46.605Z,102256.00
2018-10-03T18:08:50.557Z,102277.00
2018-10-03T18:13:54.403Z,102283.00
2018-10-03T18:18:58.318Z,102285.00
2018-10-03T18:24:02.126Z,102287.00
2018-10-03T18:29:06.417Z,102273.00
2018-10-03T18:34:10.494Z,102266.00
2018-10-03T18:39:14.657Z,102252.00
2018-10-03T18:44:18.449Z,102231.00
2018-10-03T18:49:22.586Z,102211.00
2018-10-03T18:54:26.652Z,102172.00
2018-10-03T18:59:31.292Z,102131.00
2018-10-03T19:04:36.806Z,102108.00
2018-10-03T19:09:40.634Z,102057.00
2018-10-03T19:14:44.697Z,102025.00
2018-10-03T19:19:48.506Z,101993.00
2018-10-03T19:24:52.345Z,101970.00
2018-10-03T19:29:56.388Z,101945.00
2018-10-03T19:35:00.436Z,101892.00
2018-10-03T19:40:04.250Z,101837.00
2018-10-03T19:45:08.069Z,101807.00
2018-10-03T19:50:11.867Z,101757.00
2018-10-03T19:55:15.938Z,101741.00
2018-10-03T20:00:19.790Z,101663.00
2018-10-03T20:05:23.569Z,101640.00
2018-10-03T20:10:27.624Z,101595.00
2018-10-03T20:15:31.711Z,101572.00
2018-10-03T20:20:36.540Z,101541.00
2018-10-03T20:25:40.369Z,101505.00
2018-10-03T20:30:44.173Z,101468.00
2018-10-03T20:35:47.983Z,101417.00
2018-10-03T20:40:52.125Z,101383.00
2018-10-03T20:45:55.932Z,101350.00
2018-10-03T20:50:59.959Z,101306.00
2018-10-03T20:56:03.757Z,101276.00
2018-10-03T21:01:07.638Z,101235.00
2018-10-03T21:06:11.453Z,101237.00
2018-10-03T21:11:15.752Z,101212.00
2018-10-03T21:16:19.933Z,101180.00
2018-10-03T21:21:24.020Z,101133.00
2018-10-03T21:26:28.107Z,101106.00
2018-10-03T21:31:31.952Z,101080.00
2018-10-03T21:36:36.086Z,101035.00
2018-10-03T21:41:39.909Z,100989.00
2018-10-03T21:46:43.732Z,100945.00
2018-10-03T21:51:47.801Z,100861.00
2018-10-03T21:56:51.966Z,100809.00
2018-10-03T22:01:56.661Z,100773.00
2018-10-03T22:07:00.727Z,100709.00
2018-10-03T22:12:04.816Z,100670.00
2018-10-03T22:17:13.878Z,100611.00
2018-10-03T22:22:17.697Z,100535.00
2018-10-03T22:27:21.572Z,100470.00
2018-10-03T22:32:25.630Z,100427.00
2018-10-03T22:37:29.419Z,100303.00
2018-10-03T22:42:33.479Z,100266.00
2018-10-03T22:47:37.561Z,100242.00
2018-10-03T22:52:41.356Z,100222.00
2018-10-03T22:57:45.265Z,100232.00
2018-10-03T23:02:49.322Z,100236.00
2018-10-03T23:07:53.117Z,100225.00
2018-10-03T23:12:56.919Z,100251.00
2018-10-03T23:18:00.962Z,100252.00
2018-10-03T23:23:05.001Z,100224.00
2018-10-03T23:28:08.801Z,100208.00
2018-10-03T23:33:12.617Z,100172.00
2018-10-03T23:38:16.424Z,100135.00
2018-10-03T23:43:20.317Z,100109.00
2018-10-03T23:48:24.365Z,100083.00
2018-10-03T23:53:28.421Z,100071.00
2018-10-03T23:58:32.503Z,100054.00
